createdAt,value
2023-08-06T00:00:01.889Z,23.14
2023-08-06T00:02:29.026Z,22.58
2023-08-06T00:04:56.088Z,22.13
2023-08-06T00:07:23.315Z,22.31
2023-08-06T00:09:50.456Z,22.43
2023-08-06T00:12:17.604Z,22.46
2023-08-06T00:14:44.892Z,22.42
2023-08-06T00:17:12.232Z,22.49
2023-08-06T00:19:39.379Z,22.39
2023-08-06T00:22:06.785Z,22.18
2023-08-06T00:24:34.938Z,22.02
2023-08-06T00:27:02.667Z,21.50
2023-08-06T00:29:30.011Z,22.00
2023-08-06T00:31:57.382Z,22.14
2023-08-06T00:34:24.482Z,22.36
2023-08-06T00:36:51.689Z,22.20
2023-08-06T00:39:19.389Z,22.03
2023-08-06T00:41:46.686Z,21.92
2023-08-06T00:44:13.794Z,22.02
2023-08-06T00:46:41.269Z,22.22
2023-08-06T00:49:08.979Z,22.28
2023-08-06T00:51:36.175Z,22.35
2023-08-06T00:54:04.041Z,22.15
2023-08-06T00:56:31.477Z,22.12
2023-08-06T00:58:59.121Z,22.14
2023-08-06T01:01:26.218Z,22.15
2023-08-06T01:03:55.024Z,22.25
2023-08-06T01:07:06.491Z,22.25
2023-08-06T01:09:57.077Z,22.48
2023-08-06T01:13:21.566Z,22.92
2023-08-06T01:15:55.018Z,22.85
2023-08-06T01:18:22.317Z,22.64
2023-08-06T01:20:50.882Z,22.75
2023-08-06T01:23:19.400Z,22.92
2023-08-06T01:26:39.041Z,22.49
2023-08-06T01:29:32.400Z,22.27
2023-08-06T01:32:00.211Z,22.13
2023-08-06T01:34:34.105Z,22.47
2023-08-06T01:37:02.698Z,22.57
2023-08-06T01:39:34.273Z,22.74
2023-08-06T01:42:01.405Z,22.24
2023-08-06T01:44:28.712Z,22.29
2023-08-06T01:46:55.790Z,22.38
2023-08-06T01:49:22.910Z,22.56
2023-08-06T01:51:50.352Z,22.01
2023-08-06T01:54:17.792Z,22.03
2023-08-06T01:56:44.931Z,21.84
2023-08-06T01:59:11.994Z,21.77
2023-08-06T02:01:39.102Z,21.91
2023-08-06T02:04:06.268Z,21.70
2023-08-06T02:06:33.407Z,21.85
2023-08-06T02:09:00.546Z,21.97
2023-08-06T02:11:27.691Z,22.06
2023-08-06T02:13:55.613Z,21.91
2023-08-06T02:16:22.857Z,22.01
2023-08-06T02:18:50.038Z,22.03
2023-08-06T02:21:17.209Z,22.07
2023-08-06T02:23:44.632Z,21.95
2023-08-06T02:26:11.811Z,21.59
2023-08-06T02:28:38.946Z,21.81
2023-08-06T02:31:07.846Z,21.94
2023-08-06T02:33:35.083Z,21.57
2023-08-06T02:36:07.227Z,21.89
2023-08-06T02:38:34.575Z,21.80
2023-08-06T02:41:05.031Z,21.89
2023-08-06T02:43:32.859Z,22.19
2023-08-06T02:46:01.488Z,22.30
2023-08-06T02:48:28.939Z,22.08
2023-08-06T02:51:03.118Z,22.28
2023-08-06T02:53:30.442Z,22.34
2023-08-06T02:55:57.606Z,22.45
2023-08-06T02:58:24.948Z,22.23
2023-08-06T03:01:08.263Z,22.51
2023-08-06T03:03:35.812Z,22.30
2023-08-06T03:06:03.243Z,21.44
2023-08-06T03:08:30.386Z,21.94
2023-08-06T03:10:57.482Z,22.39
2023-08-06T03:13:24.728Z,22.33
2023-08-06T03:15:58.280Z,22.65
2023-08-06T03:18:27.000Z,22.82
2023-08-06T03:20:54.450Z,22.60
2023-08-06T03:23:21.669Z,22.41
2023-08-06T03:25:48.891Z,22.43
2023-08-06T03:28:16.351Z,22.24
2023-08-06T03:30:43.727Z,22.30
2023-08-06T03:33:10.940Z,22.24
2023-08-06T03:35:38.240Z,21.90
2023-08-06T03:38:05.397Z,21.55
2023-08-06T03:40:32.683Z,21.28
2023-08-06T03:42:59.800Z,21.18
2023-08-06T03:45:26.911Z,21.07
2023-08-06T03:47:54.250Z,21.15
2023-08-06T03:50:21.391Z,21.39
2023-08-06T03:52:48.494Z,21.35
2023-08-06T03:55:15.716Z,21.10
2023-08-06T03:57:42.879Z,21.12
2023-08-06T04:00:10.824Z,21.25
2023-08-06T04:02:37.995Z,21.11
2023-08-06T04:05:05.584Z,21.13
2023-08-06T04:07:32.786Z,21.12
2023-08-06T04:10:03.847Z,21.11
2023-08-06T04:12:32.265Z,21.29
2023-08-06T04:15:00.445Z,21.27
2023-08-06T04:17:27.728Z,21.19
2023-08-06T04:19:56.263Z,21.31
2023-08-06T04:22:23.409Z,21.41
2023-08-06T04:24:50.575Z,21.48
2023-08-06T04:27:20.284Z,21.50
2023-08-06T04:29:47.391Z,21.45
2023-08-06T04:32:14.629Z,21.47
2023-08-06T04:34:41.791Z,21.56
2023-08-06T04:37:09.041Z,21.66
2023-08-06T04:39:36.164Z,21.70
2023-08-06T04:42:03.590Z,21.81
2023-08-06T04:44:30.761Z,21.53
2023-08-06T04:46:57.877Z,21.38
2023-08-06T04:49:26.510Z,21.42
2023-08-06T04:51:53.746Z,21.40
2023-08-06T04:54:21.033Z,21.08
2023-08-06T04:56:48.227Z,21.25
2023-08-06T04:59:15.306Z,21.53
2023-08-06T05:01:42.554Z,21.41
2023-08-06T05:04:09.776Z,21.38
2023-08-06T05:06:39.314Z,21.49
2023-08-06T05:09:07.291Z,21.46
2023-08-06T05:11:34.590Z,21.14
2023-08-06T05:14:01.735Z,21.22
2023-08-06T05:16:29.220Z,21.43
2023-08-06T05:18:56.396Z,21.53
2023-08-06T05:21:23.583Z,21.44
2023-08-06T05:23:50.700Z,21.50
2023-08-06T05:26:19.628Z,21.28
2023-08-06T05:28:46.989Z,21.29
2023-08-06T05:31:14.651Z,21.19
2023-08-06T05:33:41.861Z,21.27
2023-08-06T05:36:09.038Z,21.12
2023-08-06T05:38:39.177Z,21.30
2023-08-06T05:41:06.312Z,21.38
2023-08-06T05:43:33.454Z,21.40
2023-08-06T05:46:00.651Z,21.55
2023-08-06T05:48:28.947Z,21.59
2023-08-06T05:50:56.194Z,21.18
2023-08-06T05:53:23.384Z,21.29
2023-08-06T05:55:51.165Z,21.25
2023-08-06T05:58:18.513Z,21.31
2023-08-06T06:00:46.616Z,21.52
2023-08-06T06:03:13.750Z,21.81
2023-08-06T06:05:43.171Z,21.60
2023-08-06T06:08:10.284Z,21.50
2023-08-06T06:10:37.525Z,21.76
2023-08-06T06:13:04.704Z,21.72
2023-08-06T06:15:32.140Z,22.24
2023-08-06T06:17:59.338Z,22.59
2023-08-06T06:20:26.559Z,22.28
2023-08-06T06:22:53.717Z,22.04
2023-08-06T06:25:20.804Z,21.80
2023-08-06T06:27:47.908Z,21.98
2023-08-06T06:30:15.493Z,21.80
2023-08-06T06:32:42.688Z,22.10
2023-08-06T06:35:11.088Z,22.43
2023-08-06T06:37:38.186Z,22.50
2023-08-06T06:40:06.593Z,22.93
2023-08-06T06:42:33.833Z,22.18
2023-08-06T06:45:01.010Z,23.13
2023-08-06T06:47:28.231Z,23.52
2023-08-06T06:49:55.405Z,23.47
2023-08-06T06:52:22.542Z,23.02
2023-08-06T06:54:49.723Z,22.87
2023-08-06T06:57:16.868Z,23.22
2023-08-06T06:59:44.049Z,23.15
2023-08-06T07:02:11.108Z,22.81
2023-08-06T07:04:38.231Z,23.22
2023-08-06T07:07:05.887Z,22.71
2023-08-06T07:09:33.067Z,22.89
2023-08-06T07:12:00.311Z,23.39
2023-08-06T07:14:27.720Z,23.59
2023-08-06T07:16:55.032Z,23.76
2023-08-06T07:19:22.481Z,23.63
2023-08-06T07:21:49.664Z,23.52
2023-08-06T07:24:16.921Z,23.48
2023-08-06T07:26:44.076Z,23.52
2023-08-06T07:29:11.285Z,23.48
2023-08-06T07:31:38.656Z,23.78
2023-08-06T07:34:05.975Z,22.83
2023-08-06T07:36:33.385Z,23.29
2023-08-06T07:39:00.969Z,23.54
2023-08-06T07:41:28.146Z,23.43
2023-08-06T07:43:55.449Z,23.49
2023-08-06T07:46:22.697Z,23.82
2023-08-06T07:48:50.191Z,23.17
2023-08-06T07:51:17.530Z,23.56
2023-08-06T07:53:46.262Z,23.77
2023-08-06T07:56:13.436Z,23.56
2023-08-06T07:58:41.327Z,24.04
2023-08-06T08:01:08.689Z,23.96
2023-08-06T08:03:36.032Z,23.88
2023-08-06T08:06:03.389Z,23.94
2023-08-06T08:08:30.509Z,23.97
2023-08-06T08:10:57.890Z,24.32
2023-08-06T08:13:25.471Z,23.69
2023-08-06T08:16:00.356Z,24.01
2023-08-06T08:18:28.232Z,24.11
2023-08-06T08:20:55.518Z,24.30
2023-08-06T08:23:23.143Z,23.97
2023-08-06T08:25:58.402Z,23.26
2023-08-06T08:28:26.380Z,23.47
2023-08-06T08:30:53.582Z,23.79
2023-08-06T08:33:22.616Z,23.17
2023-08-06T08:35:49.736Z,23.73
2023-08-06T08:38:16.902Z,24.23
2023-08-06T08:40:55.226Z,24.05
2023-08-06T08:43:24.406Z,24.18
2023-08-06T08:45:56.094Z,23.56
2023-08-06T08:48:23.684Z,24.22
2023-08-06T08:50:51.422Z,24.45
2023-08-06T08:53:19.870Z,23.64
2023-08-06T08:55:50.194Z,23.56
2023-08-06T08:58:17.674Z,23.96
2023-08-06T09:00:46.466Z,23.94
2023-08-06T09:03:14.294Z,23.50
2023-08-06T09:05:47.544Z,24.13
2023-08-06T09:08:25.595Z,23.98
2023-08-06T09:10:53.576Z,24.06
2023-08-06T09:13:22.361Z,23.41
2023-08-06T09:15:51.088Z,23.79
2023-08-06T09:18:30.291Z,24.12
2023-08-06T09:20:59.126Z,23.84
2023-08-06T09:23:32.029Z,24.33
2023-08-06T09:26:00.289Z,24.22
2023-08-06T09:28:44.352Z,23.82
2023-08-06T09:31:11.772Z,24.17
2023-08-06T09:33:41.690Z,23.45
2023-08-06T09:36:12.532Z,23.75
2023-08-06T09:38:43.743Z,23.75
2023-08-06T09:41:11.088Z,23.78
2023-08-06T09:43:44.783Z,23.08
2023-08-06T09:46:17.423Z,24.05
2023-08-06T09:48:49.227Z,24.14
2023-08-06T09:51:16.724Z,24.43
2023-08-06T09:53:44.824Z,24.25
2023-08-06T09:56:14.031Z,23.76
2023-08-06T09:58:41.479Z,24.20
2023-08-06T10:01:09.147Z,23.72
2023-08-06T10:03:37.880Z,23.49
2023-08-06T10:06:08.052Z,23.87
2023-08-06T10:08:35.425Z,23.41
2023-08-06T10:11:05.261Z,23.91
2023-08-06T10:13:34.956Z,23.68
2023-08-06T10:16:06.564Z,23.62
2023-08-06T10:18:36.721Z,23.62
2023-08-06T10:21:08.393Z,23.66
2023-08-06T10:23:41.382Z,23.59
2023-08-06T10:26:09.433Z,23.37
2023-08-06T10:28:41.010Z,23.06
2023-08-06T10:31:08.222Z,23.49
2023-08-06T10:33:49.209Z,24.05
2023-08-06T10:36:16.926Z,24.04
2023-08-06T10:38:51.695Z,23.28
2023-08-06T10:41:30.531Z,23.55
2023-08-06T10:44:11.745Z,23.50
2023-08-06T10:46:39.938Z,23.50
2023-08-06T10:49:08.448Z,23.97
2023-08-06T10:51:38.996Z,24.26
2023-08-06T10:54:06.719Z,24.17
2023-08-06T10:56:43.211Z,23.86
2023-08-06T10:59:11.953Z,24.37
2023-08-06T11:01:40.194Z,23.65
2023-08-06T11:04:08.294Z,23.41
2023-08-06T11:06:35.522Z,23.76
2023-08-06T11:09:03.442Z,24.24
2023-08-06T11:11:30.627Z,23.76
2023-08-06T11:14:00.653Z,23.88
2023-08-06T11:16:28.684Z,24.05
2023-08-06T11:18:57.481Z,23.44
2023-08-06T11:21:25.879Z,24.05
2023-08-06T11:23:54.420Z,23.90
2023-08-06T11:26:25.026Z,23.81
2023-08-06T11:28:57.138Z,23.86
2023-08-06T11:31:28.036Z,23.56
2023-08-06T11:33:56.058Z,23.51
2023-08-06T11:36:43.803Z,23.98
2023-08-06T11:39:10.939Z,23.92
2023-08-06T11:41:41.955Z,24.20
2023-08-06T11:44:14.407Z,24.04
2023-08-06T11:46:57.733Z,24.28
2023-08-06T11:49:51.038Z,23.73
2023-08-06T11:52:25.913Z,23.62
2023-08-06T11:55:11.688Z,23.78
2023-08-06T11:57:43.434Z,23.93
2023-08-06T12:00:15.554Z,23.57
2023-08-06T12:02:45.905Z,24.06
2023-08-06T12:05:27.507Z,23.68
2023-08-06T12:08:02.121Z,23.63
2023-08-06T12:10:33.025Z,23.77
2023-08-06T12:13:01.198Z,24.11
2023-08-06T12:15:28.963Z,23.80
2023-08-06T12:17:57.514Z,23.69
2023-08-06T12:20:24.720Z,23.75
2023-08-06T12:22:54.254Z,23.48
2023-08-06T12:25:21.470Z,23.65
2023-08-06T12:27:48.685Z,23.71
2023-08-06T12:30:16.021Z,23.65
2023-08-06T12:32:45.187Z,24.23
2023-08-06T12:35:12.408Z,23.94
2023-08-06T12:37:39.897Z,24.37
2023-08-06T12:40:28.561Z,24.05
2023-08-06T12:42:55.273Z,24.21
2023-08-06T12:45:23.018Z,24.26
2023-08-06T12:47:50.939Z,24.22
2023-08-06T12:50:18.785Z,24.13
2023-08-06T12:52:46.374Z,23.62
2023-08-06T12:55:13.520Z,23.72
2023-08-06T12:57:56.752Z,24.23
2023-08-06T13:00:26.813Z,24.09
2023-08-06T13:02:54.378Z,24.32
2023-08-06T13:05:21.871Z,23.81
2023-08-06T13:07:49.037Z,23.63
2023-08-06T13:10:16.270Z,23.41
2023-08-06T13:12:45.189Z,23.53
2023-08-06T13:15:12.431Z,24.00
2023-08-06T13:17:39.659Z,23.81
2023-08-06T13:20:08.012Z,23.62
2023-08-06T13:22:35.107Z,23.62
2023-08-06T13:25:02.225Z,23.57
2023-08-06T13:27:29.459Z,23.45
2023-08-06T13:29:56.569Z,23.58
2023-08-06T13:32:23.699Z,23.17
2023-08-06T13:34:51.176Z,22.95
2023-08-06T13:37:19.518Z,23.02
2023-08-06T13:39:46.694Z,23.12
2023-08-06T13:42:13.819Z,23.26
2023-08-06T13:44:40.939Z,23.33
2023-08-06T13:47:08.080Z,23.77
2023-08-06T13:49:35.149Z,23.72
2023-08-06T13:52:15.772Z,23.39
2023-08-06T13:54:48.476Z,23.15
2023-08-06T13:57:15.714Z,22.51
2023-08-06T13:59:45.117Z,22.62
2023-08-06T14:02:12.697Z,22.95
2023-08-06T14:04:41.060Z,23.15
2023-08-06T14:07:08.375Z,22.66
2023-08-06T14:09:35.713Z,22.48
2023-08-06T14:12:04.188Z,22.74
2023-08-06T14:14:31.334Z,22.71
2023-08-06T14:16:59.392Z,22.72
2023-08-06T14:19:27.050Z,22.70
2023-08-06T14:21:54.724Z,22.16
2023-08-06T14:24:22.025Z,22.70
2023-08-06T14:26:49.440Z,23.12
2023-08-06T14:29:16.932Z,23.39
2023-08-06T14:31:44.092Z,22.97
2023-08-06T14:34:11.513Z,22.91
2023-08-06T14:36:39.051Z,22.34
2023-08-06T14:39:06.355Z,23.06
2023-08-06T14:41:33.773Z,23.31
2023-08-06T14:44:01.350Z,22.90
2023-08-06T14:46:28.617Z,23.37
2023-08-06T14:48:55.724Z,23.25
2023-08-06T14:51:23.517Z,23.28
2023-08-06T14:53:50.680Z,23.49
2023-08-06T14:56:17.847Z,23.29
2023-08-06T14:58:45.068Z,23.36
2023-08-06T15:01:13.724Z,23.32
2023-08-06T15:03:41.001Z,23.30
2023-08-06T15:06:08.968Z,23.40
2023-08-06T15:08:36.228Z,23.27
2023-08-06T15:11:03.996Z,23.23
2023-08-06T15:13:31.544Z,23.45
2023-08-06T15:15:58.691Z,23.79
2023-08-06T15:18:25.865Z,22.71
2023-08-06T15:20:53.138Z,22.36
2023-08-06T15:23:20.838Z,22.98
2023-08-06T15:25:48.225Z,23.33
2023-08-06T15:28:15.460Z,23.25
2023-08-06T15:30:51.582Z,23.04
2023-08-06T15:33:22.274Z,23.24
2023-08-06T15:35:50.408Z,22.20
2023-08-06T15:38:17.513Z,22.27
2023-08-06T15:40:46.626Z,22.72
2023-08-06T15:43:14.268Z,22.39
2023-08-06T15:45:41.385Z,22.81
2023-08-06T15:48:10.248Z,22.75
2023-08-06T15:50:40.559Z,23.02
2023-08-06T15:53:07.987Z,22.82
2023-08-06T15:55:38.390Z,22.94
2023-08-06T15:58:07.104Z,23.22
2023-08-06T16:00:34.804Z,22.88
2023-08-06T16:03:03.765Z,22.72
2023-08-06T16:05:32.061Z,23.27
2023-08-06T16:07:59.935Z,23.08
2023-08-06T16:10:27.060Z,23.49
2023-08-06T16:12:54.226Z,23.07
2023-08-06T16:15:21.334Z,23.17
2023-08-06T16:17:48.560Z,23.39
2023-08-06T16:20:15.731Z,23.29
2023-08-06T16:22:43.488Z,23.25
2023-08-06T16:25:15.631Z,21.42
2023-08-06T16:27:42.859Z,21.67
2023-08-06T16:30:11.042Z,21.47
2023-08-06T16:32:38.582Z,22.38
2023-08-06T16:35:07.893Z,22.53
2023-08-06T16:37:35.145Z,22.62
2023-08-06T16:40:04.872Z,22.82
2023-08-06T16:42:31.998Z,22.93
2023-08-06T16:44:59.318Z,23.14
2023-08-06T16:47:26.682Z,23.01
2023-08-06T16:49:53.974Z,22.34
2023-08-06T16:52:21.172Z,22.57
2023-08-06T16:54:50.291Z,22.13
2023-08-06T16:57:17.393Z,22.34
2023-08-06T16:59:44.533Z,22.54
2023-08-06T17:02:11.923Z,22.57
2023-08-06T17:04:39.150Z,22.63
2023-08-06T17:07:06.931Z,22.41
2023-08-06T17:09:34.046Z,22.15
2023-08-06T17:12:01.282Z,22.16
2023-08-06T17:14:30.672Z,22.25
2023-08-06T17:16:58.207Z,22.07
2023-08-06T17:19:25.866Z,22.24
2023-08-06T17:21:53.059Z,22.48
2023-08-06T17:24:20.267Z,22.07
2023-08-06T17:26:47.722Z,22.41
2023-08-06T17:29:15.064Z,22.06
2023-08-06T17:31:42.241Z,22.12
2023-08-06T17:34:09.425Z,22.56
2023-08-06T17:36:36.555Z,22.33
2023-08-06T17:39:03.674Z,22.55
2023-08-06T17:41:30.791Z,22.65
2023-08-06T17:43:58.042Z,22.42
2023-08-06T17:46:25.456Z,22.51
2023-08-06T17:48:56.251Z,22.44
2023-08-06T17:51:26.802Z,22.36
2023-08-06T17:53:54.028Z,22.24
2023-08-06T17:56:21.157Z,22.26
2023-08-06T17:58:48.307Z,22.28
2023-08-06T18:01:15.749Z,22.30
2023-08-06T18:03:44.632Z,22.11
2023-08-06T18:06:12.353Z,22.21
2023-08-06T18:08:39.652Z,21.92
2023-08-06T18:11:06.792Z,22.03
2023-08-06T18:13:34.908Z,21.78
2023-08-06T18:16:02.016Z,21.85
2023-08-06T18:18:29.363Z,21.48
2023-08-06T18:20:56.489Z,21.64
2023-08-06T18:23:23.771Z,21.64
2023-08-06T18:25:51.079Z,22.05
2023-08-06T18:28:18.197Z,22.14
2023-08-06T18:30:45.604Z,21.89
2023-08-06T18:33:12.794Z,21.88
2023-08-06T18:35:43.449Z,21.16
2023-08-06T18:38:13.237Z,21.66
2023-08-06T18:40:40.917Z,21.60
2023-08-06T18:43:11.235Z,21.81
2023-08-06T18:45:41.400Z,21.57
2023-08-06T18:48:08.816Z,21.47
2023-08-06T18:50:38.165Z,21.66
2023-08-06T18:53:05.759Z,21.76
2023-08-06T18:55:33.104Z,21.44
2023-08-06T18:58:04.428Z,21.20
2023-08-06T19:00:32.320Z,21.29
2023-08-06T19:02:59.936Z,21.57
2023-08-06T19:05:27.965Z,21.63
2023-08-06T19:07:55.078Z,21.53
2023-08-06T19:10:24.958Z,21.63
2023-08-06T19:12:52.214Z,21.26
2023-08-06T19:15:19.391Z,21.68
2023-08-06T19:17:46.545Z,21.67
2023-08-06T19:20:13.752Z,21.27
2023-08-06T19:22:40.890Z,21.37
2023-08-06T19:25:08.651Z,20.52
2023-08-06T19:27:36.731Z,21.07
2023-08-06T19:30:04.892Z,21.28
2023-08-06T19:32:32.176Z,21.37
2023-08-06T19:34:59.382Z,21.03
2023-08-06T19:37:26.522Z,21.07
2023-08-06T19:39:53.661Z,20.74
2023-08-06T19:42:20.986Z,20.70
2023-08-06T19:44:48.262Z,20.91
2023-08-06T19:47:15.523Z,21.30
2023-08-06T19:49:42.658Z,21.11
2023-08-06T19:52:09.752Z,21.36
2023-08-06T19:54:37.588Z,20.99
2023-08-06T19:57:06.860Z,21.34
2023-08-06T19:59:36.982Z,21.08
2023-08-06T20:02:04.370Z,20.75
2023-08-06T20:04:32.135Z,20.99
2023-08-06T20:07:00.368Z,20.89
2023-08-06T20:09:31.551Z,20.74
2023-08-06T20:11:59.210Z,20.80
2023-08-06T20:14:26.920Z,20.87
2023-08-06T20:16:59.910Z,21.02
2023-08-06T20:19:27.317Z,21.04
2023-08-06T20:21:54.634Z,20.57
2023-08-06T20:24:22.169Z,20.79
2023-08-06T20:26:52.886Z,20.81
2023-08-06T20:29:20.081Z,20.45
2023-08-06T20:31:47.278Z,20.61
2023-08-06T20:34:15.004Z,20.79
2023-08-06T20:36:42.168Z,20.96
2023-08-06T20:39:09.293Z,20.99
2023-08-06T20:41:36.548Z,20.93
2023-08-06T20:44:04.171Z,21.13
2023-08-06T20:46:31.685Z,21.15
2023-08-06T20:48:58.995Z,21.04
2023-08-06T20:51:26.321Z,20.74
2023-08-06T20:53:53.639Z,20.70
2023-08-06T20:56:21.582Z,21.00
2023-08-06T20:58:49.400Z,20.82
2023-08-06T21:01:16.848Z,20.75
2023-08-06T21:03:44.047Z,20.72
2023-08-06T21:06:11.292Z,20.79
2023-08-06T21:08:38.462Z,20.85
2023-08-06T21:11:06.218Z,20.38
2023-08-06T21:13:33.610Z,20.18
2023-08-06T21:16:04.457Z,20.63
2023-08-06T21:18:34.672Z,20.58
2023-08-06T21:21:08.946Z,20.17
2023-08-06T21:23:36.966Z,20.57
2023-08-06T21:26:07.044Z,20.37
2023-08-06T21:28:36.650Z,20.10
2023-08-06T21:31:13.712Z,20.24
2023-08-06T21:33:47.484Z,20.37
2023-08-06T21:36:15.017Z,20.15
2023-08-06T21:38:43.020Z,20.18
2023-08-06T21:41:16.749Z,20.12
2023-08-06T21:43:49.143Z,20.14
2023-08-06T21:46:21.185Z,20.34
2023-08-06T21:48:50.756Z,19.68
2023-08-06T21:51:20.959Z,19.09
2023-08-06T21:53:49.196Z,20.29
2023-08-06T21:56:17.715Z,19.86
2023-08-06T21:58:53.324Z,19.91
2023-08-06T22:01:42.406Z,19.54
2023-08-06T22:04:09.609Z,19.66
2023-08-06T22:06:36.702Z,20.38
2023-08-06T22:09:05.402Z,20.09
2023-08-06T22:11:32.738Z,19.84
2023-08-06T22:14:01.069Z,20.38
2023-08-06T22:16:28.276Z,20.18
2023-08-06T22:18:55.636Z,19.86
2023-08-06T22:21:23.147Z,19.85
2023-08-06T22:23:50.289Z,20.14
2023-08-06T22:26:17.513Z,19.81
2023-08-06T22:28:55.510Z,19.99
2023-08-06T22:31:27.017Z,20.28
2023-08-06T22:33:54.173Z,20.22
2023-08-06T22:36:21.452Z,19.82
2023-08-06T22:38:48.798Z,20.37
2023-08-06T22:41:16.121Z,19.95
2023-08-06T22:43:43.303Z,20.36
2023-08-06T22:46:10.536Z,20.11
2023-08-06T22:48:37.670Z,20.09
2023-08-06T22:51:04.807Z,19.61
2023-08-06T22:53:32.060Z,19.88
2023-08-06T22:56:08.301Z,20.22
2023-08-06T22:58:38.665Z,19.50
2023-08-06T23:01:06.151Z,19.67
2023-08-06T23:03:34.062Z,20.11
2023-08-06T23:06:02.370Z,19.71
2023-08-06T23:08:29.545Z,19.46
2023-08-06T23:10:57.365Z,19.37
2023-08-06T23:13:24.525Z,19.85
2023-08-06T23:15:51.732Z,19.76
2023-08-06T23:18:18.902Z,20.12
2023-08-06T23:20:46.198Z,19.97
2023-08-06T23:23:13.383Z,19.79
2023-08-06T23:25:40.530Z,19.77
2023-08-06T23:28:07.720Z,19.43
2023-08-06T23:30:35.026Z,19.21
2023-08-06T23:33:02.891Z,19.09
2023-08-06T23:35:30.265Z,19.60
2023-08-06T23:37:58.135Z,19.30
2023-08-06T23:40:25.684Z,19.61
2023-08-06T23:42:52.798Z,19.87
2023-08-06T23:45:20.033Z,19.93
2023-08-06T23:47:47.405Z,19.81
2023-08-06T23:50:16.770Z,19.91
2023-08-06T23:52:43.957Z,19.86
2023-08-06T23:55:11.601Z,19.95
2023-08-06T23:57:38.841Z,20.03
